Wetterdaten: Woche 05.01.09 - 11.01.09 (KW2)
Datum Zeit Temp. A. Feuchte A. Luftdruck Regen Wind Richtung Taupunkt Windchill Windben
05.01.2009 00:00 -1,3 C 70 % 1015,4 hPa 0,0 l/m 0,4 km/h (0 Bft) W -6,2 C -1,3 C 5,2 km/h (1 Bft)
05.01.2009 01:00 -0,9 C 71 % 1015,1 hPa 0,0 l/m 3,0 km/h (1 Bft) W-SW -5,5 C -0,9 C 10,1 km/h (2 Bft)
05.01.2009 02:00 -0,4 C 66 % 1015,2 hPa 0,0 l/m 6,1 km/h (2 Bft) SW -6,0 C -1,5 C 18,9 km/h (3 Bft)
05.01.2009 03:00 -0,7 C 66 % 1014,6 hPa 0,0 l/m 4,7 km/h (1 Bft) SW -6,4 C -0,8 C 12,5 km/h (3 Bft)
05.01.2009 04:00 -0,6 C 66 % 1014,4 hPa 0,0 l/m 4,0 km/h (1 Bft) W -6,2 C -0,6 C 13,3 km/h (3 Bft)
05.01.2009 05:00 -0,5 C 65 % 1014,4 hPa 0,0 l/m 3,5 km/h (1 Bft) W -6,2 C -0,5 C 12,1 km/h (2 Bft)
05.01.2009 06:00 -0,4 C 64 % 1014,3 hPa 0,0 l/m 6,3 km/h (2 Bft) W-NW -6,4 C -0,6 C 18,1 km/h (3 Bft)
05.01.2009 07:00 -0,2 C 63 % 1014,5 hPa 0,0 l/m 7,0 km/h (2 Bft) W -6,4 C -0,8 C 18,5 km/h (3 Bft)
05.01.2009 08:00 -0,2 C 63 % 1015,1 hPa 0,0 l/m 6,5 km/h (2 Bft) W -6,4 C -0,5 C 19,7 km/h (3 Bft)
05.01.2009 09:00 -0,1 C 63 % 1015,5 hPa 0,0 l/m 8,6 km/h (2 Bft) S-SW -6,4 C -2,3 C 22,9 km/h (4 Bft)
05.01.2009 10:00 0,1 C 65 % 1016,0 hPa 0,0 l/m 6,1 km/h (2 Bft) W-SW -5,6 C -0,1 C 18,1 km/h (3 Bft)
05.01.2009 11:00 -0,1 C 70 % 1015,9 hPa 0,0 l/m 5,6 km/h (1 Bft) SW -4,9 C -0,2 C 15,3 km/h (3 Bft)
05.01.2009 12:00 0,3 C 64 % 1015,7 hPa 0,0 l/m 6,8 km/h (2 Bft) W -5,6 C -0,3 C 19,7 km/h (3 Bft)
05.01.2009 13:00 0,6 C 63 % 1015,6 hPa 0,0 l/m 5,1 km/h (1 Bft) W -5,6 C 0,6 C 16,5 km/h (3 Bft)
05.01.2009 14:00 0,3 C 67 % 1016,0 hPa 0,0 l/m 5,1 km/h (1 Bft) SW -5,2 C 0,3 C 14,9 km/h (3 Bft)
05.01.2009 15:00 -0,1 C 69 % 1016,5 hPa 0,0 l/m 4,7 km/h (1 Bft) W-SW -5,1 C -0,1 C 11,3 km/h (2 Bft)
05.01.2009 16:00 -0,2 C 69 % 1017,0 hPa 0,0 l/m 1,5 km/h (1 Bft) S -5,2 C -0,2 C 7,2 km/h (2 Bft)
05.01.2009 17:00 -0,7 C 76 % 1017,5 hPa 0,0 l/m 0,7 km/h (0 Bft) S-SO -4,4 C -0,7 C 5,2 km/h (1 Bft)
05.01.2009 18:00 -1,2 C 81 % 1017,9 hPa 0,0 l/m 0,2 km/h (0 Bft) N -4,1 C -1,2 C 2,4 km/h (1 Bft)
05.01.2009 19:00 -1,5 C 84 % 1018,4 hPa 0,0 l/m 0,1 km/h (0 Bft) N -3,9 C -1,5 C 1,6 km/h (1 Bft)
05.01.2009 20:00 -1,9 C 85 % 1018,9 hPa 0,0 l/m 0,0 km/h (0 Bft) N -4,1 C -1,9 C 1,2 km/h (1 Bft)
05.01.2009 21:00 -2,2 C 86 % 1019,4 hPa 0,0 l/m 0,0 km/h (0 Bft) N -4,3 C -2,2 C 0,0 km/h (0 Bft)
05.01.2009 22:00 -2,5 C 86 % 1020,0 hPa 0,0 l/m 0,0 km/h (0 Bft) N -4,5 C -2,5 C 0,4 km/h (0 Bft)
05.01.2009 23:00 -2,8 C 87 % 1020,6 hPa 0,0 l/m 0,0 km/h (0 Bft) N -4,7 C -2,8 C 0,0 km/h (0 Bft)
06.01.2009 00:00 -2,6 C 88 % 1020,7 hPa 0,0 l/m 0,0 km/h (0 Bft) N -4,3 C -2,6 C 0,0 km/h (0 Bft)
06.01.2009 01:00 -2,4 C 89 % 1021,0 hPa 0,0 l/m 0,1 km/h (0 Bft) N -4,0 C -2,4 C 1,6 km/h (1 Bft)
06.01.2009 02:00 -2,5 C 89 % 1021,5 hPa 0,0 l/m 0,8 km/h (0 Bft) O -4,1 C -2,5 C 3,6 km/h (1 Bft)
06.01.2009 03:00 -2,8 C 89 % 1021,8 hPa 0,0 l/m 1,6 km/h (1 Bft) O-NO -4,3 C -2,8 C 5,2 km/h (1 Bft)
06.01.2009 04:00 -2,9 C 89 % 1022,0 hPa 0,0 l/m 1,1 km/h (1 Bft) O-SO -4,4 C -2,9 C 4,0 km/h (1 Bft)
06.01.2009 05:00 -3,1 C 90 % 1022,3 hPa 0,0 l/m 1,6 km/h (1 Bft) NO -4,5 C -3,1 C 4,4 km/h (1 Bft)
06.01.2009 06:00 -3,5 C 90 % 1022,7 hPa 0,0 l/m 3,2 km/h (1 Bft) O-NO -4,9 C -3,5 C 6,4 km/h (2 Bft)
06.01.2009 07:00 -3,8 C 90 % 1023,1 hPa 0,0 l/m 3,1 km/h (1 Bft) N-NO -5,1 C -3,8 C 6,4 km/h (2 Bft)
06.01.2009 08:00 -4,1 C 90 % 1023,4 hPa 0,0 l/m 1,8 km/h (1 Bft) NO -5,5 C -4,1 C 5,2 km/h (1 Bft)
06.01.2009 09:00 -4,2 C 90 % 1023,8 hPa 0,0 l/m 0,3 km/h (0 Bft) N -5,6 C -4,2 C 0,8 km/h (0 Bft)
06.01.2009 10:00 -4,1 C 90 % 1023,8 hPa 0,0 l/m 1,5 km/h (1 Bft) O -5,5 C -4,1 C 4,0 km/h (1 Bft)
06.01.2009 11:00 -4,2 C 90 % 1023,5 hPa 0,0 l/m 2,7 km/h (1 Bft) O -5,6 C -4,2 C 6,4 km/h (2 Bft)
06.01.2009 12:00 -4,2 C 90 % 1022,9 hPa 0,0 l/m 3,0 km/h (1 Bft) O -5,6 C -4,2 C 6,4 km/h (2 Bft)
06.01.2009 13:00 -4,1 C 89 % 1022,5 hPa 0,0 l/m 3,3 km/h (1 Bft) O-NO -5,6 C -4,1 C 7,6 km/h (2 Bft)
06.01.2009 14:00 -3,9 C 89 % 1022,2 hPa 0,0 l/m 3,4 km/h (1 Bft) O -5,5 C -3,9 C 8,1 km/h (2 Bft)
06.01.2009 15:00 -4,0 C 89 % 1022,1 hPa 0,0 l/m 5,4 km/h (1 Bft) O -5,5 C -4,0 C 10,9 km/h (2 Bft)
06.01.2009 16:00 -4,0 C 89 % 1022,0 hPa 0,0 l/m 3,6 km/h (1 Bft) O -5,6 C -4,0 C 8,0 km/h (2 Bft)
06.01.2009 17:00 -4,0 C 89 % 1021,9 hPa 0,0 l/m 3,3 km/h (1 Bft) SO -5,5 C -4,0 C 10,5 km/h (2 Bft)
06.01.2009 18:00 -4,6 C 89 % 1021,8 hPa 0,0 l/m 2,6 km/h (1 Bft) O -6,2 C -4,6 C 7,6 km/h (2 Bft)
06.01.2009 19:00 -4,7 C 89 % 1021,6 hPa 0,0 l/m 2,9 km/h (1 Bft) SO -6,2 C -4,7 C 9,6 km/h (2 Bft)
06.01.2009 20:00 -4,7 C 89 % 1021,3 hPa 0,0 l/m 2,8 km/h (1 Bft) O-SO -6,2 C -4,7 C 9,3 km/h (2 Bft)
06.01.2009 21:00 -4,8 C 89 % 1021,3 hPa 0,0 l/m 3,1 km/h (1 Bft) O-SO -6,4 C -4,8 C 9,7 km/h (2 Bft)
06.01.2009 22:00 -5,4 C 89 % 1020,9 hPa 0,0 l/m 2,1 km/h (1 Bft) O-SO -6,9 C -5,4 C 7,6 km/h (2 Bft)
06.01.2009 23:00 -5,5 C 89 % 1020,5 hPa 0,0 l/m 0,6 km/h (0 Bft) N -7,0 C -5,5 C 3,6 km/h (1 Bft)
07.01.2009 00:00 -6,5 C 88 % 1020,3 hPa 0,0 l/m 0,0 km/h (0 Bft) N -8,1 C -6,5 C 0,4 km/h (0 Bft)
07.01.2009 01:00 -7,3 C 89 % 1020,3 hPa 0,0 l/m 0,0 km/h (0 Bft) N -8,9 C -7,3 C 0,4 km/h (0 Bft)
07.01.2009 02:00 -6,3 C 90 % 1020,1 hPa 0,0 l/m 0,0 km/h (0 Bft) N -7,6 C -6,3 C 0,8 km/h (0 Bft)
07.01.2009 03:00 -5,5 C 90 % 1020,2 hPa 0,0 l/m 0,0 km/h (0 Bft) N -6,9 C -5,5 C 0,0 km/h (0 Bft)
07.01.2009 04:00 -5,3 C 90 % 1019,9 hPa 0,0 l/m 0,0 km/h (0 Bft) N -6,7 C -5,3 C 0,4 km/h (0 Bft)
07.01.2009 05:00 -5,2 C 90 % 1020,0 hPa 0,0 l/m 0,0 km/h (0 Bft) N -6,6 C -5,2 C 0,0 km/h (0 Bft)
07.01.2009 06:00 -5,1 C 90 % 1020,0 hPa 0,0 l/m 0,7 km/h (0 Bft) W-NW -6,5 C -5,1 C 3,2 km/h (1 Bft)
07.01.2009 07:00 -4,8 C 87 % 1020,2 hPa 0,0 l/m 0,8 km/h (0 Bft) N -6,6 C -4,8 C 4,8 km/h (1 Bft)
07.01.2009 08:00 -4,7 C 85 % 1020,7 hPa 0,0 l/m 0,9 km/h (0 Bft) W-NW -6,8 C -4,7 C 4,8 km/h (1 Bft)
07.01.2009 09:00 -4,4 C 83 % 1021,0 hPa 0,0 l/m 1,8 km/h (1 Bft) NW -6,8 C -4,4 C 6,4 km/h (2 Bft)
07.01.2009 10:00 -4,2 C 82 % 1021,0 hPa 0,0 l/m 1,7 km/h (1 Bft) W-SW -6,8 C -4,2 C 6,4 km/h (2 Bft)
07.01.2009 11:00 -4,0 C 81 % 1020,8 hPa 0,0 l/m 2,4 km/h (1 Bft) NW -6,8 C -4,0 C 7,2 km/h (2 Bft)
07.01.2009 12:00 -3,8 C 79 % 1020,3 hPa 0,0 l/m 3,2 km/h (1 Bft) W -6,9 C -3,8 C 9,7 km/h (2 Bft)
07.01.2009 13:00 -3,7 C 79 % 1019,7 hPa 0,0 l/m 3,5 km/h (1 Bft) NW -6,8 C -3,7 C 10,1 km/h (2 Bft)
07.01.2009 14:00 -3,7 C 78 % 1019,4 hPa 0,0 l/m 4,5 km/h (1 Bft) W -6,9 C -3,7 C 14,9 km/h (3 Bft)
07.01.2009 15:00 -3,7 C 79 % 1019,7 hPa 0,0 l/m 3,3 km/h (1 Bft) N-NW -6,8 C -3,7 C 11,3 km/h (2 Bft)
07.01.2009 16:00 -3,6 C 78 % 1020,1 hPa 0,0 l/m 4,4 km/h (1 Bft) S-SW -6,9 C -3,6 C 16,1 km/h (3 Bft)
07.01.2009 17:00 -3,4 C 77 % 1020,5 hPa 0,0 l/m 5,0 km/h (1 Bft) W -6,9 C -3,4 C 16,5 km/h (3 Bft)
07.01.2009 18:00 -3,7 C 77 % 1020,7 hPa 0,0 l/m 3,2 km/h (1 Bft) W-SW -7,1 C -3,7 C 10,5 km/h (2 Bft)
07.01.2009 19:00 -4,5 C 78 % 1021,0 hPa 0,0 l/m 1,5 km/h (1 Bft) W -7,7 C -4,5 C 6,0 km/h (2 Bft)
07.01.2009 20:00 -5,1 C 79 % 1021,5 hPa 0,0 l/m 1,0 km/h (0 Bft) N -8,1 C -5,1 C 6,0 km/h (2 Bft)
07.01.2009 21:00 -5,3 C 79 % 1022,2 hPa 0,0 l/m 2,3 km/h (1 Bft) W-SW -8,3 C -5,3 C 9,7 km/h (2 Bft)
07.01.2009 22:00 -3,8 C 76 % 1022,8 hPa 0,0 l/m 7,0 km/h (2 Bft) W-NW -7,4 C -4,7 C 19,3 km/h (3 Bft)
07.01.2009 23:00 -3,3 C 75 % 1023,3 hPa 0,0 l/m 10,0 km/h (2 Bft) W -7,2 C -7,0 C 24,1 km/h (4 Bft)
08.01.2009 00:00 -3,4 C 74 % 1024,0 hPa 0,0 l/m 6,8 km/h (2 Bft) W-NW -7,3 C -4,5 C 19,7 km/h (3 Bft)
08.01.2009 01:00 -3,4 C 74 % 1024,9 hPa 0,0 l/m 9,5 km/h (2 Bft) W-NW -7,5 C -6,7 C 22,5 km/h (4 Bft)
08.01.2009 02:00 -3,9 C 75 % 1025,4 hPa 0,0 l/m 10,4 km/h (2 Bft) NW -7,7 C -8,1 C 25,8 km/h (4 Bft)
08.01.2009 03:00 -4,0 C 74 % 1025,8 hPa 0,0 l/m 9,1 km/h (2 Bft) NW -7,9 C -7,0 C 20,9 km/h (4 Bft)
08.01.2009 04:00 -4,0 C 74 % 1026,5 hPa 0,0 l/m 7,8 km/h (2 Bft) W-NW -7,9 C -5,6 C 19,3 km/h (3 Bft)
08.01.2009 05:00 -4,3 C 74 % 1027,4 hPa 0,0 l/m 5,2 km/h (1 Bft) NW -8,2 C -4,5 C 12,5 km/h (3 Bft)
08.01.2009 06:00 -4,8 C 76 % 1028,6 hPa 0,0 l/m 5,2 km/h (1 Bft) NW -8,4 C -4,8 C 15,7 km/h (3 Bft)
08.01.2009 07:00 -4,8 C 76 % 1030,0 hPa 0,0 l/m 5,6 km/h (1 Bft) N-NW -8,4 C -5,0 C 13,7 km/h (3 Bft)
08.01.2009 08:00 -4,7 C 77 % 1031,3 hPa 0,0 l/m 3,5 km/h (1 Bft) W-NW -8,2 C -4,7 C 8,9 km/h (2 Bft)
08.01.2009 09:00 -4,0 C 76 % 1032,2 hPa 0,0 l/m 5,8 km/h (1 Bft) NW -7,6 C -4,1 C 12,9 km/h (3 Bft)
08.01.2009 10:00 -3,3 C 73 % 1032,8 hPa 0,0 l/m 5,8 km/h (2 Bft) W-NW -7,4 C -3,3 C 13,7 km/h (3 Bft)
08.01.2009 11:00 -2,4 C 70 % 1032,9 hPa 0,0 l/m 4,7 km/h (1 Bft) W -7,1 C -2,4 C 10,5 km/h (2 Bft)
08.01.2009 12:00 -1,9 C 68 % 1032,7 hPa 0,0 l/m 2,1 km/h (1 Bft) W -7,1 C -1,9 C 8,0 km/h (2 Bft)
08.01.2009 13:00 -1,9 C 67 % 1032,7 hPa 0,0 l/m 1,5 km/h (1 Bft) O -7,2 C -1,9 C 5,6 km/h (1 Bft)
08.01.2009 14:00 -2,0 C 66 % 1032,6 hPa 0,0 l/m 1,6 km/h (1 Bft) O -7,5 C -2,0 C 5,6 km/h (1 Bft)
08.01.2009 15:00 -2,3 C 67 % 1033,0 hPa 0,0 l/m 1,1 km/h (1 Bft) O -7,6 C -2,3 C 4,3 km/h (1 Bft)
08.01.2009 16:00 -3,1 C 69 % 1033,3 hPa 0,0 l/m 0,2 km/h (0 Bft) N -8,0 C -3,1 C 1,2 km/h (1 Bft)
08.01.2009 17:00 -5,1 C 72 % 1033,9 hPa 0,0 l/m 0,0 km/h (0 Bft) N -9,4 C -5,1 C 0,0 km/h (0 Bft)
08.01.2009 18:00 -6,7 C 77 % 1034,3 hPa 0,0 l/m 0,1 km/h (0 Bft) N -10,0 C -6,7 C 2,0 km/h (1 Bft)
08.01.2009 19:00 -7,7 C 80 % 1034,7 hPa 0,0 l/m 0,1 km/h (0 Bft) N -10,5 C -7,7 C 1,6 km/h (1 Bft)
08.01.2009 20:00 -8,6 C 82 % 1034,9 hPa 0,0 l/m 0,0 km/h (0 Bft) N -11,1 C -8,6 C 0,4 km/h (0 Bft)
08.01.2009 21:00 -9,4 C 83 % 1034,9 hPa 0,0 l/m 0,0 km/h (0 Bft) N -11,8 C -9,4 C 0,0 km/h (0 Bft)
08.01.2009 22:00 -10,1 C 84 % 1034,6 hPa 0,0 l/m 0,0 km/h (0 Bft) N -12,4 C -10,1 C 0,8 km/h (0 Bft)
08.01.2009 23:00 -10,6 C 84 % 1034,3 hPa 0,0 l/m 0,0 km/h (0 Bft) N -12,8 C -10,6 C 0,0 km/h (0 Bft)
09.01.2009 00:00 -11,1 C 85 % 1033,8 hPa 0,0 l/m 0,0 km/h (0 Bft) N -13,2 C -11,1 C 0,0 km/h (0 Bft)
09.01.2009 01:00 -11,4 C 85 % 1033,2 hPa 0,0 l/m 0,0 km/h (0 Bft) N -13,3 C -11,4 C 0,0 km/h (0 Bft)
09.01.2009 02:00 -11,3 C 86 % 1032,9 hPa 0,0 l/m 0,0 km/h (0 Bft) N -13,2 C -11,3 C 0,0 km/h (0 Bft)
09.01.2009 03:00 -11,4 C 86 % 1032,5 hPa 0,0 l/m 0,0 km/h (0 Bft) N -13,3 C -11,4 C 0,4 km/h (0 Bft)
09.01.2009 04:00 -11,7 C 86 % 1032,2 hPa 0,0 l/m 0,0 km/h (0 Bft) N -13,5 C -11,7 C 0,0 km/h (0 Bft)
09.01.2009 05:00 -11,4 C 87 % 1032,0 hPa 0,0 l/m 0,0 km/h (0 Bft) N -13,2 C -11,4 C 0,4 km/h (0 Bft)
09.01.2009 06:00 -11,7 C 87 % 1032,0 hPa 0,0 l/m 0,0 km/h (0 Bft) N -13,5 C -11,7 C 0,4 km/h (0 Bft)
09.01.2009 07:00 -11,3 C 87 % 1032,5 hPa 0,0 l/m 0,1 km/h (0 Bft) N -12,9 C -11,3 C 0,8 km/h (0 Bft)
09.01.2009 08:00 -10,8 C 87 % 1032,7 hPa 0,0 l/m 0,1 km/h (0 Bft) N -12,5 C -10,8 C 1,2 km/h (1 Bft)
09.01.2009 09:00 -8,8 C 89 % 1032,9 hPa 0,0 l/m 0,8 km/h (0 Bft) N-NW -10,3 C -8,8 C 2,8 km/h (1 Bft)
09.01.2009 10:00 -6,5 C 88 % 1032,8 hPa 0,0 l/m 1,2 km/h (1 Bft) O-NO -8,2 C -6,5 C 4,4 km/h (1 Bft)
09.01.2009 11:00 -4,8 C 81 % 1032,5 hPa 0,0 l/m 1,1 km/h (0 Bft) NO -7,5 C -4,8 C 4,8 km/h (1 Bft)
09.01.2009 12:00 -2,9 C 75 % 1031,8 hPa 0,0 l/m 1,9 km/h (1 Bft) NW -6,7 C -2,9 C 6,0 km/h (2 Bft)
09.01.2009 13:00 -1,3 C 67 % 1031,3 hPa 0,0 l/m 3,6 km/h (1 Bft) O-SO -6,6 C -1,3 C 9,3 km/h (2 Bft)
09.01.2009 14:00 -1,0 C 65 % 1031,1 hPa 0,0 l/m 4,8 km/h (1 Bft) O -6,8 C -1,0 C 11,3 km/h (2 Bft)
09.01.2009 15:00 -1,3 C 64 % 1031,1 hPa 0,0 l/m 4,6 km/h (1 Bft) O-NO -7,2 C -1,3 C 8,9 km/h (2 Bft)
09.01.2009 16:00 -3,4 C 67 % 1031,5 hPa 0,0 l/m 2,1 km/h (1 Bft) NW -8,6 C -3,4 C 6,4 km/h (2 Bft)
09.01.2009 17:00 -5,6 C 74 % 1031,8 hPa 0,0 l/m 2,4 km/h (1 Bft) N-NW -9,5 C -5,6 C 7,6 km/h (2 Bft)
09.01.2009 18:00 -6,5 C 78 % 1031,9 hPa 0,0 l/m 1,2 km/h (1 Bft) N-NW -9,7 C -6,5 C 4,0 km/h (1 Bft)
09.01.2009 19:00 -7,4 C 80 % 1032,3 hPa 0,0 l/m 0,3 km/h (0 Bft) W-SW -10,4 C -7,4 C 2,8 km/h (1 Bft)
09.01.2009 20:00 -7,8 C 82 % 1032,5 hPa 0,0 l/m 0,9 km/h (0 Bft) N -10,3 C -7,8 C 5,6 km/h (1 Bft)
09.01.2009 21:00 -8,4 C 82 % 1032,8 hPa 0,0 l/m 0,2 km/h (0 Bft) N -10,9 C -8,4 C 3,2 km/h (1 Bft)
09.01.2009 22:00 -9,0 C 83 % 1032,9 hPa 0,0 l/m 0,1 km/h (0 Bft) N -11,4 C -9,0 C 1,2 km/h (1 Bft)
09.01.2009 23:00 -9,8 C 84 % 1032,9 hPa 0,0 l/m 0,0 km/h (0 Bft) N -12,1 C -9,8 C 1,2 km/h (1 Bft)
10.01.2009 00:00 -9,9 C 85 % 1032,6 hPa 0,0 l/m 0,5 km/h (0 Bft) W -12,0 C -9,9 C 4,4 km/h (1 Bft)
10.01.2009 01:00 -9,9 C 85 % 1032,8 hPa 0,0 l/m 0,3 km/h (0 Bft) N -11,9 C -9,9 C 3,6 km/h (1 Bft)
10.01.2009 02:00 -10,4 C 84 % 1033,3 hPa 0,0 l/m 0,6 km/h (0 Bft) W-SW -12,6 C -10,4 C 4,0 km/h (1 Bft)
10.01.2009 03:00 -10,5 C 84 % 1033,5 hPa 0,0 l/m 1,4 km/h (1 Bft) W-SW -12,7 C -10,5 C 5,6 km/h (1 Bft)
10.01.2009 04:00 -10,7 C 84 % 1033,6 hPa 0,0 l/m 1,7 km/h (1 Bft) SW -12,9 C -10,7 C 6,0 km/h (2 Bft)
10.01.2009 05:00 -11,0 C 83 % 1033,8 hPa 0,0 l/m 0,6 km/h (0 Bft) SW -13,3 C -11,0 C 3,6 km/h (1 Bft)
10.01.2009 06:00 -11,3 C 83 % 1034,1 hPa 0,0 l/m 1,2 km/h (1 Bft) SW -13,5 C -11,3 C 5,6 km/h (1 Bft)
10.01.2009 07:00 -11,0 C 84 % 1034,3 hPa 0,0 l/m 1,7 km/h (1 Bft) SW -13,2 C -11,0 C 6,4 km/h (2 Bft)
10.01.2009 08:00 -10,8 C 84 % 1034,8 hPa 0,0 l/m 2,4 km/h (1 Bft) SW -13,0 C -10,8 C 8,1 km/h (2 Bft)
10.01.2009 09:00 -9,9 C 84 % 1035,0 hPa 0,0 l/m 1,8 km/h (1 Bft) W-SW -12,1 C -9,9 C 6,4 km/h (2 Bft)
10.01.2009 10:00 -8,3 C 84 % 1035,1 hPa 0,0 l/m 0,4 km/h (0 Bft) N -10,5 C -8,3 C 3,6 km/h (1 Bft)
10.01.2009 11:00 -6,7 C 82 % 1034,9 hPa 0,0 l/m 1,5 km/h (1 Bft) O -9,2 C -6,7 C 4,8 km/h (1 Bft)
10.01.2009 12:00 -5,9 C 81 % 1034,4 hPa 0,0 l/m 1,3 km/h (1 Bft) O -8,7 C -5,9 C 4,0 km/h (1 Bft)
10.01.2009 13:00 -5,3 C 78 % 1033,9 hPa 0,0 l/m 2,8 km/h (1 Bft) O -8,4 C -5,3 C 6,0 km/h (2 Bft)
10.01.2009 14:00 -4,9 C 77 % 1033,9 hPa 0,0 l/m 2,3 km/h (1 Bft) O -8,3 C -4,9 C 6,4 km/h (2 Bft)
10.01.2009 15:00 -4,7 C 77 % 1033,9 hPa 0,0 l/m 0,8 km/h (0 Bft) N -8,1 C -4,7 C 3,6 km/h (1 Bft)
10.01.2009 16:00 -5,3 C 77 % 1033,9 hPa 0,0 l/m 0,3 km/h (0 Bft) N -8,8 C -5,3 C 2,8 km/h (1 Bft)
10.01.2009 17:00 -6,9 C 77 % 1034,1 hPa 0,0 l/m 0,0 km/h (0 Bft) N -10,3 C -6,9 C 0,0 km/h (0 Bft)
10.01.2009 18:00 -8,4 C 80 % 1034,4 hPa 0,0 l/m 0,0 km/h (0 Bft) N -11,2 C -8,4 C 0,8 km/h (0 Bft)
10.01.2009 19:00 -9,4 C 83 % 1034,6 hPa 0,0 l/m 0,0 km/h (0 Bft) N -11,8 C -9,4 C 0,0 km/h (0 Bft)
10.01.2009 20:00 -10,1 C 84 % 1034,9 hPa 0,0 l/m 0,0 km/h (0 Bft) N -12,2 C -10,1 C 0,4 km/h (0 Bft)
10.01.2009 21:00 -10,2 C 85 % 1035,0 hPa 0,0 l/m 0,0 km/h (0 Bft) N -12,2 C -10,2 C 0,0 km/h (0 Bft)
10.01.2009 22:00 -9,7 C 87 % 1035,1 hPa 0,0 l/m 0,4 km/h (0 Bft) N -11,4 C -9,7 C 4,0 km/h (1 Bft)
10.01.2009 23:00 -8,7 C 89 % 1035,2 hPa 0,0 l/m 0,8 km/h (0 Bft) S-SO -10,3 C -8,7 C 5,6 km/h (1 Bft)
11.01.2009 00:00 -8,7 C 89 % 1035,4 hPa 0,0 l/m 2,0 km/h (1 Bft) O-SO -10,1 C -8,7 C 6,8 km/h (2 Bft)
11.01.2009 01:00 -8,8 C 89 % 1035,5 hPa 0,0 l/m 1,1 km/h (1 Bft) S -10,2 C -8,8 C 6,8 km/h (2 Bft)
11.01.2009 02:00 -8,7 C 89 % 1035,7 hPa 0,0 l/m 0,6 km/h (0 Bft) S -10,2 C -8,7 C 4,8 km/h (1 Bft)
11.01.2009 03:00 -8,6 C 89 % 1036,0 hPa 0,0 l/m 2,1 km/h (1 Bft) S -10,0 C -8,6 C 8,4 km/h (2 Bft)
11.01.2009 04:00 -8,3 C 89 % 1036,3 hPa 0,0 l/m 1,8 km/h (1 Bft) S -9,8 C -8,3 C 7,6 km/h (2 Bft)
11.01.2009 05:00 -8,3 C 89 % 1036,8 hPa 0,0 l/m 1,1 km/h (1 Bft) O-SO -9,8 C -8,3 C 4,4 km/h (1 Bft)
11.01.2009 06:00 -8,4 C 89 % 1037,0 hPa 0,0 l/m 1,3 km/h (1 Bft) SO -9,9 C -8,4 C 4,8 km/h (1 Bft)
11.01.2009 07:00 -8,3 C 89 % 1037,4 hPa 0,0 l/m 0,7 km/h (0 Bft) N -9,8 C -8,3 C 4,8 km/h (1 Bft)
11.01.2009 08:00 -8,4 C 89 % 1038,1 hPa 0,0 l/m 1,1 km/h (0 Bft) S-SO -9,9 C -8,4 C 5,6 km/h (1 Bft)
11.01.2009 09:00 -8,4 C 89 % 1038,7 hPa 0,0 l/m 1,1 km/h (0 Bft) S-SO -9,9 C -8,4 C 5,2 km/h (1 Bft)
11.01.2009 10:00 -8,7 C 89 % 1039,1 hPa 0,0 l/m 1,1 km/h (1 Bft) SO -10,1 C -8,7 C 6,0 km/h (2 Bft)
11.01.2009 11:00 -8,7 C 89 % 1039,0 hPa 0,0 l/m 1,0 km/h (0 Bft) O-SO -10,2 C -8,7 C 5,2 km/h (1 Bft)
11.01.2009 12:00 -8,4 C 89 % 1038,7 hPa 0,0 l/m 1,3 km/h (1 Bft) S -9,9 C -8,4 C 6,8 km/h (2 Bft)
11.01.2009 13:00 -8,3 C 88 % 1038,6 hPa 0,0 l/m 1,1 km/h (0 Bft) S-SO -9,9 C -8,3 C 7,2 km/h (2 Bft)
11.01.2009 14:00 -8,1 C 87 % 1038,5 hPa 0,0 l/m 1,3 km/h (1 Bft) S -9,9 C -8,1 C 6,4 km/h (2 Bft)
11.01.2009 15:00 -7,9 C 86 % 1038,4 hPa 0,0 l/m 2,3 km/h (1 Bft) S-SO -9,8 C -7,9 C 10,9 km/h (2 Bft)
11.01.2009 16:00 -7,8 C 85 % 1038,7 hPa 0,0 l/m 1,7 km/h (1 Bft) S -9,8 C -7,8 C 8,0 km/h (2 Bft)
11.01.2009 17:00 -7,6 C 86 % 1039,0 hPa 0,0 l/m 0,5 km/h (0 Bft) O-SO -9,6 C -7,6 C 4,4 km/h (1 Bft)
11.01.2009 18:00 -7,3 C 86 % 1038,9 hPa 0,0 l/m 1,3 km/h (1 Bft) S-SO -9,3 C -7,3 C 6,8 km/h (2 Bft)
11.01.2009 19:00 -7,3 C 86 % 1039,0 hPa 0,0 l/m 1,0 km/h (0 Bft) S -9,2 C -7,3 C 5,6 km/h (1 Bft)
11.01.2009 20:00 -7,4 C 86 % 1039,4 hPa 0,0 l/m 1,3 km/h (1 Bft) SO -9,3 C -7,4 C 7,2 km/h (2 Bft)
11.01.2009 21:00 -7,6 C 86 % 1039,4 hPa 0,0 l/m 0,8 km/h (0 Bft) SO -9,5 C -7,6 C 5,2 km/h (1 Bft)
11.01.2009 22:00 -7,7 C 86 % 1039,6 hPa 0,0 l/m 1,9 km/h (1 Bft) SO -9,6 C -7,7 C 8,0 km/h (2 Bft)
11.01.2009 23:00 -7,8 C 86 % 1039,2 hPa 0,0 l/m 1,8 km/h (1 Bft) SO -9,7 C -7,8 C 7,6 km/h (2 Bft)
Min-Datum _ 09.01.09 05.01.09 05.01.09 - 05.01.09 - 09.01.09 09.01.09 05.01.09
_ Min-Zeit 04:45 07:30 06:00 - 00:30 - 04:45 04:45 00:30
Minimum _ -11,8 C 62 % 1014,2 hPa - 0,0 km/h (0 Bft) - -13,7 C -11,8 C 0,0 km/h (0 Bft)
Max-Datum _ 05.01.09 06.01.09 11.01.09 05.01.09 07.01.09 - 05.01.09 05.01.09 08.01.09
_ Max-Zeit 13:15 06:45 22:15 00:00 23:30 - 19:15 13:15 02:00
Maximum _ 0,6 C 91 % 1039,8 hPa 0,0 l/m 12,2 km/h
W (2 Bft)
- -3,8 C 0,6 C 29,0 km/h
NW (5 Bft)
Durchschnitt _ -5,5 C 81 % 1027,8 hPa #0,0 l/m 2,2 km/h (1 Bft) NW -8,3 C -5,7 C 6,9 km/h (2 Bft)